sensor_id;sensor_type;location;lat;lon;timestamp;pressure;altitude;pressure_sealevel;temperature;humidity
26192;BME280;13935;55.672;37.764;2023-06-22T02:56:56;100247.50;;;19.48;78.64
26192;BME280;13935;55.672;37.764;2023-06-22T02:58:27;100247.22;;;19.27;77.23
26192;BME280;13935;55.672;37.764;2023-06-22T02:59:31;100235.47;;;19.16;79.08
26192;BME280;13935;55.672;37.764;2023-06-22T03:00:42;100249.31;;;19.03;79.67
26192;BME280;13935;55.672;37.764;2023-06-22T03:01:45;100233.19;;;19.07;80.93
26192;BME280;13935;55.672;37.764;2023-06-22T03:02:56;100240.66;;;19.33;78.98
26192;BME280;13935;55.672;37.764;2023-06-22T03:03:59;100240.78;;;19.93;76.25
26192;BME280;13935;55.672;37.764;2023-06-22T03:05:01;100239.28;;;20.05;73.46
26192;BME280;13935;55.672;37.764;2023-06-22T03:06:04;100239.31;;;21.02;69.55
26192;BME280;13935;55.672;37.764;2023-06-22T03:07:06;100237.00;;;21.75;64.43
26192;BME280;13935;55.672;37.764;2023-06-22T03:08:08;100249.44;;;22.45;60.05
26192;BME280;13935;55.672;37.764;2023-06-22T03:09:10;100238.44;;;22.81;57.47
26192;BME280;13935;55.672;37.764;2023-06-22T03:10:14;100239.00;;;23.18;54.88
26192;BME280;13935;55.672;37.764;2023-06-22T03:11:16;100249.53;;;23.57;53.06
26192;BME280;13935;55.672;37.764;2023-06-22T03:12:18;100230.53;;;24.06;51.83
26192;BME280;13935;55.672;37.764;2023-06-22T03:13:27;100241.53;;;23.95;49.95
26192;BME280;13935;55.672;37.764;2023-06-22T03:14:29;100232.63;;;24.50;48.65
26192;BME280;13935;55.672;37.764;2023-06-22T03:15:31;100227.75;;;24.42;47.57
26192;BME280;13935;55.672;37.764;2023-06-22T03:16:35;100238.44;;;24.82;46.70
26192;BME280;13935;55.672;37.764;2023-06-22T03:17:40;100231.69;;;24.80;46.50
26192;BME280;13935;55.672;37.764;2023-06-22T03:18:43;100233.03;;;25.02;45.58
26192;BME280;13935;55.672;37.764;2023-06-22T03:19:48;100239.03;;;25.54;43.83
26192;BME280;13935;55.672;37.764;2023-06-22T03:20:50;100236.72;;;25.44;43.27
26192;BME280;13935;55.672;37.764;2023-06-22T03:21:52;100238.50;;;25.65;42.72
26192;BME280;13935;55.672;37.764;2023-06-22T03:22:54;100235.50;;;26.00;42.28
26192;BME280;13935;55.672;37.764;2023-06-22T03:23:57;100240.63;;;25.88;42.18
26192;BME280;13935;55.672;37.764;2023-06-22T03:24:59;100237.06;;;26.48;40.96
26192;BME280;13935;55.672;37.764;2023-06-22T03:26:02;100235.13;;;26.54;40.12
26192;BME280;13935;55.672;37.764;2023-06-22T03:27:04;100237.81;;;26.86;39.84
26192;BME280;13935;55.672;37.764;2023-06-22T03:28:08;100240.81;;;27.06;38.65
26192;BME280;13935;55.672;37.764;2023-06-22T03:29:10;100233.75;;;27.02;38.19
26192;BME280;13935;55.672;37.764;2023-06-22T03:30:12;100224.66;;;26.60;37.95
26192;BME280;13935;55.672;37.764;2023-06-22T03:31:15;100238.66;;;27.16;37.81
26192;BME280;13935;55.672;37.764;2023-06-22T03:32:17;100238.81;;;27.55;37.54
26192;BME280;13935;55.672;37.764;2023-06-22T03:33:19;100242.53;;;27.76;36.14
26192;BME280;13935;55.672;37.764;2023-06-22T03:34:21;100231.28;;;27.87;36.06
26192;BME280;13935;55.672;37.764;2023-06-22T03:35:26;100224.66;;;27.75;35.82
26192;BME280;13935;55.672;37.764;2023-06-22T03:36:29;100237.94;;;27.21;36.16
26192;BME280;13935;55.672;37.764;2023-06-22T03:37:31;100234.78;;;27.62;35.51
26192;BME280;13935;55.672;37.764;2023-06-22T03:38:34;100237.13;;;27.63;35.55
26192;BME280;13935;55.672;37.764;2023-06-22T03:39:37;100234.81;;;28.16;34.48
26192;BME280;13935;55.672;37.764;2023-06-22T03:40:39;100236.50;;;28.08;34.97
26192;BME280;13935;55.672;37.764;2023-06-22T03:41:41;100236.09;;;28.15;34.22
26192;BME280;13935;55.672;37.764;2023-06-22T03:42:44;100236.13;;;28.55;34.81
26192;BME280;13935;55.672;37.764;2023-06-22T03:43:46;100232.84;;;28.42;34.17
26192;BME280;13935;55.672;37.764;2023-06-22T03:44:49;100232.25;;;28.58;33.38
26192;BME280;13935;55.672;37.764;2023-06-22T03:45:51;100235.91;;;28.38;33.58
26192;BME280;13935;55.672;37.764;2023-06-22T03:46:54;100227.97;;;29.13;33.31
26192;BME280;13935;55.672;37.764;2023-06-22T03:47:56;100225.09;;;28.88;32.87
26192;BME280;13935;55.672;37.764;2023-06-22T03:48:58;100222.63;;;29.00;32.37
26192;BME280;13935;55.672;37.764;2023-06-22T03:50:00;100228.38;;;28.81;32.63
26192;BME280;13935;55.672;37.764;2023-06-22T03:51:03;100228.34;;;29.26;32.37
26192;BME280;13935;55.672;37.764;2023-06-22T03:52:05;100221.06;;;28.99;32.37
26192;BME280;13935;55.672;37.764;2023-06-22T03:53:07;100227.09;;;29.32;31.95
26192;BME280;13935;55.672;37.764;2023-06-22T03:54:09;100226.91;;;29.72;31.90
26192;BME280;13935;55.672;37.764;2023-06-22T03:55:12;100229.09;;;29.26;32.08
26192;BME280;13935;55.672;37.764;2023-06-22T03:56:14;100215.41;;;29.61;31.47
26192;BME280;13935;55.672;37.764;2023-06-22T03:57:22;100221.41;;;29.63;31.40
26192;BME280;13935;55.672;37.764;2023-06-22T03:58:24;100221.59;;;29.29;31.18
26192;BME280;13935;55.672;37.764;2023-06-22T03:59:26;100214.25;;;30.26;31.20
26192;BME280;13935;55.672;37.764;2023-06-22T04:00:28;100218.13;;;29.81;30.85
26192;BME280;13935;55.672;37.764;2023-06-22T04:01:31;100225.38;;;30.13;30.88
26192;BME280;13935;55.672;37.764;2023-06-22T04:02:33;100214.78;;;30.30;30.09
26192;BME280;13935;55.672;37.764;2023-06-22T04:03:35;100215.94;;;30.48;29.78
26192;BME280;13935;55.672;37.764;2023-06-22T04:04:37;100216.44;;;30.47;30.14
26192;BME280;13935;55.672;37.764;2023-06-22T04:05:42;100215.19;;;30.53;30.54
26192;BME280;13935;55.672;37.764;2023-06-22T04:06:44;100214.22;;;30.78;29.87
26192;BME280;13935;55.672;37.764;2023-06-22T04:07:46;100212.47;;;31.30;28.89
26192;BME280;13935;55.672;37.764;2023-06-22T04:08:48;100221.25;;;30.88;29.14
26192;BME280;13935;55.672;37.764;2023-06-22T04:09:53;100209.63;;;31.08;29.69
26192;BME280;13935;55.672;37.764;2023-06-22T04:10:55;100212.75;;;31.81;28.47
26192;BME280;13935;55.672;37.764;2023-06-22T04:11:57;100215.94;;;32.45;27.85
26192;BME280;13935;55.672;37.764;2023-06-22T04:13:00;100210.16;;;31.34;28.66
26192;BME280;13935;55.672;37.764;2023-06-22T04:14:02;100207.00;;;31.26;29.57
26192;BME280;13935;55.672;37.764;2023-06-22T04:15:05;100213.53;;;31.71;28.40
26192;BME280;13935;55.672;37.764;2023-06-22T04:16:07;100212.75;;;31.21;29.52
26192;BME280;13935;55.672;37.764;2023-06-22T04:17:09;100213.50;;;31.49;29.31
26192;BME280;13935;55.672;37.764;2023-06-22T04:18:11;100212.75;;;31.59;28.13
26192;BME280;13935;55.672;37.764;2023-06-22T04:19:14;100206.19;;;31.91;27.45
26192;BME280;13935;55.672;37.764;2023-06-22T04:20:19;100215.88;;;31.72;27.76
26192;BME280;13935;55.672;37.764;2023-06-22T04:21:21;100213.78;;;31.34;28.61
26192;BME280;13935;55.672;37.764;2023-06-22T04:22:23;100207.78;;;31.82;27.60
26192;BME280;13935;55.672;37.764;2023-06-22T04:23:25;100206.91;;;32.19;27.22
26192;BME280;13935;55.672;37.764;2023-06-22T04:24:27;100211.25;;;32.42;27.51
26192;BME280;13935;55.672;37.764;2023-06-22T04:25:31;100207.72;;;32.03;27.74
26192;BME280;13935;55.672;37.764;2023-06-22T04:26:33;100201.72;;;32.18;27.36
26192;BME280;13935;55.672;37.764;2023-06-22T04:27:38;100205.91;;;32.00;27.78
26192;BME280;13935;55.672;37.764;2023-06-22T04:28:42;100206.78;;;31.41;27.81
26192;BME280;13935;55.672;37.764;2023-06-22T04:29:44;100211.31;;;32.26;27.80
26192;BME280;13935;55.672;37.764;2023-06-22T04:30:51;100206.72;;;31.95;27.24
26192;BME280;13935;55.672;37.764;2023-06-22T04:31:53;100208.97;;;32.30;26.99
26192;BME280;13935;55.672;37.764;2023-06-22T04:32:55;100209.38;;;33.07;26.17
26192;BME280;13935;55.672;37.764;2023-06-22T04:34:00;100202.09;;;32.55;26.07
26192;BME280;13935;55.672;37.764;2023-06-22T04:35:10;100204.75;;;32.42;26.69
26192;BME280;13935;55.672;37.764;2023-06-22T04:36:12;100200.19;;;32.68;26.79
26192;BME280;13935;55.672;37.764;2023-06-22T04:37:15;100200.84;;;32.39;26.69
26192;BME280;13935;55.672;37.764;2023-06-22T04:38:17;100201.72;;;32.12;27.01
26192;BME280;13935;55.672;37.764;2023-06-22T04:39:19;100195.66;;;32.32;26.59
26192;BME280;13935;55.672;37.764;2023-06-22T04:40:23;100190.91;;;33.32;25.95
26192;BME280;13935;55.672;37.764;2023-06-22T04:41:25;100203.16;;;32.92;25.42
26192;BME280;13935;55.672;37.764;2023-06-22T04:42:27;100192.41;;;32.63;26.20
26192;BME280;13935;55.672;37.764;2023-06-22T04:43:30;100190.06;;;33.02;26.08
26192;BME280;13935;55.672;37.764;2023-06-22T04:44:32;100195.00;;;33.01;26.15
26192;BME280;13935;55.672;37.764;2023-06-22T04:45:34;100208.03;;;32.62;26.73
26192;BME280;13935;55.672;37.764;2023-06-22T04:46:39;100192.19;;;32.50;26.30
26192;BME280;13935;55.672;37.764;2023-06-22T04:47:42;100196.13;;;32.42;26.16
26192;BME280;13935;55.672;37.764;2023-06-22T04:48:43;100189.56;;;32.58;26.66
26192;BME280;13935;55.672;37.764;2023-06-22T04:49:46;100181.94;;;32.09;25.65
26192;BME280;13935;55.672;37.764;2023-06-22T04:50:49;100187.06;;;32.27;26.04
26192;BME280;13935;55.672;37.764;2023-06-22T04:51:52;100178.00;;;32.17;25.85
26192;BME280;13935;55.672;37.764;2023-06-22T04:52:56;100183.78;;;32.06;26.11
26192;BME280;13935;55.672;37.764;2023-06-22T04:53:59;100182.03;;;31.65;26.59
26192;BME280;13935;55.672;37.764;2023-06-22T04:55:03;100183.34;;;31.70;26.49
26192;BME280;13935;55.672;37.764;2023-06-22T04:56:06;100183.31;;;31.04;27.02
26192;BME280;13935;55.672;37.764;2023-06-22T04:57:08;100180.69;;;30.84;27.60
26192;BME280;13935;55.672;37.764;2023-06-22T04:58:13;100183.59;;;31.33;27.01
26192;BME280;13935;55.672;37.764;2023-06-22T04:59:15;100179.69;;;31.64;25.95
26192;BME280;13935;55.672;37.764;2023-06-22T05:00:20;100180.13;;;32.68;25.55
26192;BME280;13935;55.672;37.764;2023-06-22T05:01:24;100180.41;;;32.59;25.38
26192;BME280;13935;55.672;37.764;2023-06-22T05:02:27;100186.53;;;32.34;25.45
26192;BME280;13935;55.672;37.764;2023-06-22T05:03:33;100192.06;;;32.77;25.13
26192;BME280;13935;55.672;37.764;2023-06-22T05:04:38;100186.06;;;32.75;24.85
26192;BME280;13935;55.672;37.764;2023-06-22T05:05:41;100184.56;;;33.38;24.43
26192;BME280;13935;55.672;37.764;2023-06-22T05:06:43;100183.22;;;33.39;24.04
26192;BME280;13935;55.672;37.764;2023-06-22T05:07:46;100189.13;;;33.52;24.18
26192;BME280;13935;55.672;37.764;2023-06-22T05:08:56;100188.34;;;33.57;23.94
26192;BME280;13935;55.672;37.764;2023-06-22T05:10:03;100188.09;;;33.55;24.63
26192;BME280;13935;55.672;37.764;2023-06-22T05:11:06;100184.75;;;33.99;24.15
26192;BME280;13935;55.672;37.764;2023-06-22T05:12:08;100183.19;;;33.16;24.21
26192;BME280;13935;55.672;37.764;2023-06-22T05:13:12;100193.91;;;33.74;23.97
26192;BME280;13935;55.672;37.764;2023-06-22T05:14:23;100192.09;;;33.41;24.50
26192;BME280;13935;55.672;37.764;2023-06-22T05:15:26;100189.69;;;34.04;22.94
26192;BME280;13935;55.672;37.764;2023-06-22T05:16:32;100189.25;;;31.93;24.95
26192;BME280;13935;55.672;37.764;2023-06-22T05:17:35;100187.50;;;31.69;25.05
26192;BME280;13935;55.672;37.764;2023-06-22T05:18:37;100189.59;;;31.63;25.26
26192;BME280;13935;55.672;37.764;2023-06-22T05:19:41;100183.31;;;30.88;26.23
26192;BME280;13935;55.672;37.764;2023-06-22T05:20:49;100173.69;;;30.91;25.84
26192;BME280;13935;55.672;37.764;2023-06-22T05:21:51;100177.84;;;31.01;25.55
26192;BME280;13935;55.672;37.764;2023-06-22T05:22:53;100174.41;;;30.69;26.34
26192;BME280;13935;55.672;37.764;2023-06-22T05:23:57;100174.66;;;29.97;27.28
26192;BME280;13935;55.672;37.764;2023-06-22T05:25:02;100171.06;;;30.02;26.92
26192;BME280;13935;55.672;37.764;2023-06-22T05:26:06;100181.13;;;30.44;26.60
26192;BME280;13935;55.672;37.764;2023-06-22T05:27:17;100175.66;;;30.52;26.93
26192;BME280;13935;55.672;37.764;2023-06-22T05:28:21;100175.72;;;30.79;26.48
26192;BME280;13935;55.672;37.764;2023-06-22T05:29:25;100180.22;;;31.57;25.76
26192;BME280;13935;55.672;37.764;2023-06-22T05:30:29;100181.25;;;31.32;25.59
26192;BME280;13935;55.672;37.764;2023-06-22T05:31:31;100182.06;;;31.54;24.85
26192;BME280;13935;55.672;37.764;2023-06-22T05:32:34;100178.41;;;31.54;25.41
26192;BME280;13935;55.672;37.764;2023-06-22T05:33:36;100175.28;;;31.08;25.88
26192;BME280;13935;55.672;37.764;2023-06-22T05:34:38;100179.44;;;32.40;24.30
26192;BME280;13935;55.672;37.764;2023-06-22T05:35:41;100174.84;;;32.26;24.65
26192;BME280;13935;55.672;37.764;2023-06-22T05:36:43;100182.72;;;33.12;24.03
26192;BME280;13935;55.672;37.764;2023-06-22T05:37:45;100178.25;;;33.45;23.54
26192;BME280;13935;55.672;37.764;2023-06-22T05:38:48;100175.22;;;33.33;23.53
26192;BME280;13935;55.672;37.764;2023-06-22T05:39:50;100186.25;;;33.52;22.71
26192;BME280;13935;55.672;37.764;2023-06-22T05:40:55;100181.38;;;34.61;22.15
26192;BME280;13935;55.672;37.764;2023-06-22T05:41:57;100180.25;;;34.46;22.10
26192;BME280;13935;55.672;37.764;2023-06-22T05:42:59;100173.84;;;35.26;22.01
26192;BME280;13935;55.672;37.764;2023-06-22T05:44:03;100179.91;;;35.23;21.61
26192;BME280;13935;55.672;37.764;2023-06-22T05:45:05;100191.69;;;35.56;21.70
26192;BME280;13935;55.672;37.764;2023-06-22T05:46:10;100189.09;;;36.10;20.80
26192;BME280;13935;55.672;37.764;2023-06-22T05:47:13;100180.19;;;35.82;20.90
26192;BME280;13935;55.672;37.764;2023-06-22T05:48:15;100177.09;;;35.80;20.84
26192;BME280;13935;55.672;37.764;2023-06-22T05:49:18;100187.53;;;35.96;20.85
26192;BME280;13935;55.672;37.764;2023-06-22T05:50:20;100182.22;;;36.13;21.22
26192;BME280;13935;55.672;37.764;2023-06-22T05:51:22;100193.91;;;36.79;20.31
26192;BME280;13935;55.672;37.764;2023-06-22T05:52:28;100180.19;;;36.59;20.18
26192;BME280;13935;55.672;37.764;2023-06-22T05:53:30;100189.88;;;36.82;19.61
26192;BME280;13935;55.672;37.764;2023-06-22T05:54:32;100189.78;;;36.41;20.23
26192;BME280;13935;55.672;37.764;2023-06-22T05:55:35;100197.09;;;36.55;20.03
26192;BME280;13935;55.672;37.764;2023-06-22T05:56:43;100184.59;;;35.70;20.84
26192;BME280;13935;55.672;37.764;2023-06-22T05:57:47;100182.31;;;34.88;21.59
26192;BME280;13935;55.672;37.764;2023-06-22T05:58:49;100180.69;;;36.12;20.69
26192;BME280;13935;55.672;37.764;2023-06-22T05:59:51;100184.91;;;35.98;20.87
26192;BME280;13935;55.672;37.764;2023-06-22T06:00:56;100181.78;;;36.22;20.45
26192;BME280;13935;55.672;37.764;2023-06-22T06:01:58;100182.03;;;37.16;20.02
26192;BME280;13935;55.672;37.764;2023-06-22T06:03:01;100182.84;;;36.57;20.06
26192;BME280;13935;55.672;37.764;2023-06-22T06:04:10;100184.47;;;35.50;21.56
26192;BME280;13935;55.672;37.764;2023-06-22T06:05:16;100171.94;;;35.47;21.04
26192;BME280;13935;55.672;37.764;2023-06-22T06:06:20;100177.03;;;35.23;21.75
26192;BME280;13935;55.672;37.764;2023-06-22T06:07:23;100180.19;;;34.70;22.23
26192;BME280;13935;55.672;37.764;2023-06-22T06:08:26;100181.47;;;34.56;22.16
26192;BME280;13935;55.672;37.764;2023-06-22T06:09:29;100178.19;;;34.65;21.88
26192;BME280;13935;55.672;37.764;2023-06-22T06:10:36;100178.16;;;35.64;21.55
26192;BME280;13935;55.672;37.764;2023-06-22T06:11:39;100179.56;;;36.40;21.05
26192;BME280;13935;55.672;37.764;2023-06-22T06:12:42;100177.72;;;36.63;20.64
26192;BME280;13935;55.672;37.764;2023-06-22T06:13:54;100175.13;;;37.60;20.34
26192;BME280;13935;55.672;37.764;2023-06-22T06:14:58;100170.13;;;35.31;21.85
26192;BME280;13935;55.672;37.764;2023-06-22T06:16:03;100177.19;;;36.65;20.53
26192;BME280;13935;55.672;37.764;2023-06-22T06:17:05;100167.72;;;36.77;20.29
26192;BME280;13935;55.672;37.764;2023-06-22T06:18:08;100178.00;;;36.14;20.90
26192;BME280;13935;55.672;37.764;2023-06-22T06:19:10;100168.75;;;34.46;22.41
26192;BME280;13935;55.672;37.764;2023-06-22T06:20:14;100163.44;;;35.23;21.78
26192;BME280;13935;55.672;37.764;2023-06-22T06:21:18;100167.84;;;35.56;22.19
26192;BME280;13935;55.672;37.764;2023-06-22T06:22:20;100171.44;;;34.62;22.51
26192;BME280;13935;55.672;37.764;2023-06-22T06:23:23;100167.22;;;35.75;21.66
26192;BME280;13935;55.672;37.764;2023-06-22T06:24:26;100168.34;;;35.41;21.82
26192;BME280;13935;55.672;37.764;2023-06-22T06:25:30;100167.31;;;35.70;21.59
26192;BME280;13935;55.672;37.764;2023-06-22T06:26:32;100175.13;;;36.14;21.48
26192;BME280;13935;55.672;37.764;2023-06-22T06:27:34;100178.53;;;36.64;20.85
26192;BME280;13935;55.672;37.764;2023-06-22T06:28:36;100175.78;;;36.45;20.69
26192;BME280;13935;55.672;37.764;2023-06-22T06:29:38;100175.16;;;36.86;20.36
26192;BME280;13935;55.672;37.764;2023-06-22T06:30:50;100185.59;;;37.09;20.00
26192;BME280;13935;55.672;37.764;2023-06-22T06:31:53;100177.09;;;36.44;20.76
26192;BME280;13935;55.672;37.764;2023-06-22T06:32:55;100176.00;;;36.94;20.37
26192;BME280;13935;55.672;37.764;2023-06-22T06:33:58;100176.38;;;36.77;20.36
26192;BME280;13935;55.672;37.764;2023-06-22T06:35:02;100176.16;;;37.70;19.64
26192;BME280;13935;55.672;37.764;2023-06-22T06:36:05;100178.94;;;38.31;19.22
26192;BME280;13935;55.672;37.764;2023-06-22T06:37:12;100171.75;;;36.61;20.14
26192;BME280;13935;55.672;37.764;2023-06-22T06:38:14;100168.63;;;34.93;21.58
26192;BME280;13935;55.672;37.764;2023-06-22T06:39:17;100170.34;;;35.90;21.37
26192;BME280;13935;55.672;37.764;2023-06-22T06:40:22;100174.75;;;37.22;20.06
26192;BME280;13935;55.672;37.764;2023-06-22T06:41:24;100177.34;;;35.95;20.77
26192;BME280;13935;55.672;37.764;2023-06-22T06:42:26;100165.28;;;36.68;20.78
26192;BME280;13935;55.672;37.764;2023-06-22T06:43:28;100171.91;;;36.89;20.42
26192;BME280;13935;55.672;37.764;2023-06-22T06:44:31;100172.53;;;36.62;20.08
26192;BME280;13935;55.672;37.764;2023-06-22T06:45:33;100167.34;;;36.47;20.61
26192;BME280;13935;55.672;37.764;2023-06-22T06:46:37;100171.28;;;37.24;19.94
26192;BME280;13935;55.672;37.764;2023-06-22T06:47:39;100173.25;;;36.88;20.08
26192;BME280;13935;55.672;37.764;2023-06-22T06:48:44;100177.06;;;37.24;20.04
26192;BME280;13935;55.672;37.764;2023-06-22T06:49:47;100170.69;;;34.93;21.42
26192;BME280;13935;55.672;37.764;2023-06-22T06:50:50;100176.66;;;35.89;21.09
26192;BME280;13935;55.672;37.764;2023-06-22T06:51:52;100167.50;;;36.62;20.64
26192;BME280;13935;55.672;37.764;2023-06-22T06:52:54;100173.84;;;37.07;20.43
26192;BME280;13935;55.672;37.764;2023-06-22T06:53:57;100163.13;;;37.15;19.83
26192;BME280;13935;55.672;37.764;2023-06-22T06:55:01;100165.28;;;36.68;20.26
26192;BME280;13935;55.672;37.764;2023-06-22T06:56:04;100171.44;;;35.87;21.37
26192;BME280;13935;55.672;37.764;2023-06-22T06:57:07;100158.47;;;35.68;20.97
26192;BME280;13935;55.672;37.764;2023-06-22T06:58:12;100159.53;;;34.53;22.20
26192;BME280;13935;55.672;37.764;2023-06-22T07:02:54;100158.25;;;35.79;20.40
26192;BME280;13935;55.672;37.764;2023-06-22T07:03:56;100155.91;;;33.86;21.41
26192;BME280;13935;55.672;37.764;2023-06-22T07:05:04;100159.91;;;34.81;20.78
26192;BME280;13935;55.672;37.764;2023-06-22T07:06:15;100158.06;;;34.65;21.07
26192;BME280;13935;55.672;37.764;2023-06-22T07:07:47;100157.16;;;35.38;21.08
26192;BME280;13935;55.672;37.764;2023-06-22T07:09:03;100160.56;;;35.23;20.45
26192;BME280;13935;55.672;37.764;2023-06-22T07:10:20;100162.84;;;34.93;20.60
26192;BME280;13935;55.672;37.764;2023-06-22T07:11:36;100152.75;;;35.05;20.99
26192;BME280;13935;55.672;37.764;2023-06-22T07:12:42;100152.25;;;34.28;21.00
26192;BME280;13935;55.672;37.764;2023-06-22T07:13:49;100154.16;;;34.81;20.83
26192;BME280;13935;55.672;37.764;2023-06-22T07:15:08;100149.75;;;35.42;20.50
26192;BME280;13935;55.672;37.764;2023-06-22T07:16:26;100158.78;;;35.33;20.34
26192;BME280;13935;55.672;37.764;2023-06-22T07:17:54;100150.00;;;34.94;20.99
26192;BME280;13935;55.672;37.764;2023-06-22T07:20:11;100164.16;;;35.11;20.47
26192;BME280;13935;55.672;37.764;2023-06-22T07:22:59;100157.88;;;33.73;22.10
26192;BME280;13935;55.672;37.764;2023-06-22T07:24:24;100159.22;;;32.22;23.33
26192;BME280;13935;55.672;37.764;2023-06-22T07:38:07;100153.03;;;34.10;22.66
26192;BME280;13935;55.672;37.764;2023-06-22T07:39:14;100145.69;;;33.03;23.30
26192;BME280;13935;55.672;37.764;2023-06-22T07:40:28;100148.66;;;33.27;23.87
26192;BME280;13935;55.672;37.764;2023-06-22T07:41:45;100147.34;;;32.47;24.51
26192;BME280;13935;55.672;37.764;2023-06-22T07:42:54;100145.81;;;31.79;24.87
26192;BME280;13935;55.672;37.764;2023-06-22T07:43:58;100148.41;;;33.25;24.11
26192;BME280;13935;55.672;37.764;2023-06-22T07:45:06;100150.97;;;32.53;24.50
26192;BME280;13935;55.672;37.764;2023-06-22T07:46:16;100143.31;;;32.72;24.39
26192;BME280;13935;55.672;37.764;2023-06-22T07:47:58;100145.19;;;33.34;24.13
26192;BME280;13935;55.672;37.764;2023-06-22T07:49:04;100147.25;;;33.38;23.53
26192;BME280;13935;55.672;37.764;2023-06-22T07:50:09;100136.94;;;33.48;23.71
26192;BME280;13935;55.672;37.764;2023-06-22T07:51:16;100142.09;;;33.32;23.76
26192;BME280;13935;55.672;37.764;2023-06-22T07:52:33;100143.44;;;33.78;23.88
26192;BME280;13935;55.672;37.764;2023-06-22T07:53:37;100137.84;;;34.70;22.87
26192;BME280;13935;55.672;37.764;2023-06-22T07:54:44;100140.97;;;34.54;22.72
26192;BME280;13935;55.672;37.764;2023-06-22T07:56:15;100137.69;;;33.78;23.57
26192;BME280;13935;55.672;37.764;2023-06-22T07:57:27;100141.06;;;34.24;23.04
26192;BME280;13935;55.672;37.764;2023-06-22T07:58:40;100136.19;;;33.19;23.97
26192;BME280;13935;55.672;37.764;2023-06-22T07:59:45;100141.03;;;33.58;23.63
26192;BME280;13935;55.672;37.764;2023-06-22T08:00:48;100135.72;;;33.92;23.40
26192;BME280;13935;55.672;37.764;2023-06-22T08:01:52;100139.22;;;33.85;23.70
26192;BME280;13935;55.672;37.764;2023-06-22T08:03:10;100144.97;;;33.32;24.03
26192;BME280;13935;55.672;37.764;2023-06-22T08:04:28;100140.94;;;33.93;23.40
26192;BME280;13935;55.672;37.764;2023-06-22T08:05:47;100140.22;;;33.87;24.01
26192;BME280;13935;55.672;37.764;2023-06-22T08:06:55;100132.69;;;34.26;23.35
26192;BME280;13935;55.672;37.764;2023-06-22T08:08:26;100135.09;;;33.56;23.83
26192;BME280;13935;55.672;37.764;2023-06-22T08:09:31;100134.56;;;33.52;24.09
26192;BME280;13935;55.672;37.764;2023-06-22T08:10:36;100133.38;;;33.90;23.79
26192;BME280;13935;55.672;37.764;2023-06-22T08:11:58;100127.16;;;33.38;23.88
26192;BME280;13935;55.672;37.764;2023-06-22T08:13:09;100127.31;;;33.22;24.47
26192;BME280;13935;55.672;37.764;2023-06-22T08:14:11;100125.03;;;32.29;24.85
26192;BME280;13935;55.672;37.764;2023-06-22T08:15:14;100126.19;;;32.61;24.42
26192;BME280;13935;55.672;37.764;2023-06-22T08:16:34;100124.03;;;32.72;24.40
26192;BME280;13935;55.672;37.764;2023-06-22T08:17:43;100121.53;;;31.90;25.20
26192;BME280;13935;55.672;37.764;2023-06-22T08:18:47;100126.09;;;31.37;26.18
26192;BME280;13935;55.672;37.764;2023-06-22T08:19:53;100122.69;;;31.60;25.92
26192;BME280;13935;55.672;37.764;2023-06-22T08:21:01;100118.34;;;32.21;25.65
26192;BME280;13935;55.672;37.764;2023-06-22T08:23:45;100118.34;;;32.21;25.66
26192;BME280;13935;55.672;37.764;2023-06-22T08:25:00;100122.81;;;32.00;26.19
26192;BME280;13935;55.672;37.764;2023-06-22T08:27:45;100118.06;;;32.65;25.43
26192;BME280;13935;55.672;37.764;2023-06-22T08:29:01;100121.78;;;32.03;25.93
26192;BME280;13935;55.672;37.764;2023-06-22T08:30:09;100119.84;;;32.28;25.62
26192;BME280;13935;55.672;37.764;2023-06-22T08:31:17;100119.19;;;31.94;25.56
26192;BME280;13935;55.672;37.764;2023-06-22T08:32:28;100110.09;;;32.47;25.21
26192;BME280;13935;55.672;37.764;2023-06-22T08:33:49;100114.66;;;33.01;24.48
26192;BME280;13935;55.672;37.764;2023-06-22T08:35:06;100111.44;;;32.81;24.56
26192;BME280;13935;55.672;37.764;2023-06-22T08:36:20;100107.00;;;33.15;24.15
26192;BME280;13935;55.672;37.764;2023-06-22T08:37:43;100115.81;;;33.75;23.68
26192;BME280;13935;55.672;37.764;2023-06-22T08:39:22;100119.00;;;33.90;23.07
26192;BME280;13935;55.672;37.764;2023-06-22T08:40:38;100115.06;;;33.93;23.96
26192;BME280;13935;55.672;37.764;2023-06-22T08:42:04;100120.00;;;33.74;23.80
26192;BME280;13935;55.672;37.764;2023-06-22T08:43:23;100115.22;;;33.82;23.35
26192;BME280;13935;55.672;37.764;2023-06-22T08:44:43;100118.06;;;34.24;23.64
26192;BME280;13935;55.672;37.764;2023-06-22T08:45:52;100113.97;;;34.20;23.62
26192;BME280;13935;55.672;37.764;2023-06-22T08:47:01;100114.50;;;33.76;23.52
26192;BME280;13935;55.672;37.764;2023-06-22T08:48:06;100107.53;;;33.66;23.65
26192;BME280;13935;55.672;37.764;2023-06-22T08:49:12;100100.31;;;32.26;24.94
26192;BME280;13935;55.672;37.764;2023-06-22T08:50:18;100099.56;;;32.66;24.78
26192;BME280;13935;55.672;37.764;2023-06-22T08:51:38;100096.97;;;32.97;24.37
26192;BME280;13935;55.672;37.764;2023-06-22T08:52:42;100098.59;;;33.46;24.22
26192;BME280;13935;55.672;37.764;2023-06-22T08:54:07;100102.66;;;31.55;25.88
26192;BME280;13935;55.672;37.764;2023-06-22T08:55:16;100096.91;;;31.71;26.15
26192;BME280;13935;55.672;37.764;2023-06-22T08:56:30;100094.41;;;32.08;24.62
26192;BME280;13935;55.672;37.764;2023-06-22T08:57:59;100104.72;;;31.71;25.13
26192;BME280;13935;55.672;37.764;2023-06-22T08:59:20;100093.84;;;31.53;25.51